sensor_id;sensor_type;location;lat;lon;timestamp;P1;durP1;ratioP1;P2;durP2;ratioP2
66478;SDS011;53294;47.912;13.526;2024-02-23T00:01:20;5.30;;;2.63;;
66478;SDS011;53294;47.912;13.526;2024-02-23T00:03:47;7.47;;;3.38;;
66478;SDS011;53294;47.912;13.526;2024-02-23T00:06:13;8.07;;;3.05;;
66478;SDS011;53294;47.912;13.526;2024-02-23T00:08:41;5.70;;;2.80;;
66478;SDS011;53294;47.912;13.526;2024-02-23T00:11:08;4.68;;;2.58;;
66478;SDS011;53294;47.912;13.526;2024-02-23T00:13:35;5.20;;;2.25;;
66478;SDS011;53294;47.912;13.526;2024-02-23T00:16:02;8.20;;;2.88;;
66478;SDS011;53294;47.912;13.526;2024-02-23T00:18:29;4.88;;;2.63;;
66478;SDS011;53294;47.912;13.526;2024-02-23T00:20:56;7.90;;;2.78;;
66478;SDS011;53294;47.912;13.526;2024-02-23T00:23:23;7.30;;;2.85;;
66478;SDS011;53294;47.912;13.526;2024-02-23T00:25:50;7.88;;;2.72;;
66478;SDS011;53294;47.912;13.526;2024-02-23T00:28:16;5.28;;;2.70;;
66478;SDS011;53294;47.912;13.526;2024-02-23T00:30:43;5.75;;;3.03;;
66478;SDS011;53294;47.912;13.526;2024-02-23T00:33:10;10.80;;;2.85;;
66478;SDS011;53294;47.912;13.526;2024-02-23T00:35:37;8.25;;;3.28;;
66478;SDS011;53294;47.912;13.526;2024-02-23T00:38:03;7.15;;;2.90;;
66478;SDS011;53294;47.912;13.526;2024-02-23T00:40:30;9.93;;;3.15;;
66478;SDS011;53294;47.912;13.526;2024-02-23T00:42:57;5.13;;;1.83;;
66478;SDS011;53294;47.912;13.526;2024-02-23T00:45:26;7.93;;;2.90;;
66478;SDS011;53294;47.912;13.526;2024-02-23T00:47:53;5.60;;;2.70;;
66478;SDS011;53294;47.912;13.526;2024-02-23T00:50:20;7.75;;;2.53;;
66478;SDS011;53294;47.912;13.526;2024-02-23T00:52:47;5.68;;;2.92;;
66478;SDS011;53294;47.912;13.526;2024-02-23T00:55:13;12.27;;;2.72;;
66478;SDS011;53294;47.912;13.526;2024-02-23T00:57:40;6.32;;;3.47;;
66478;SDS011;53294;47.912;13.526;2024-02-23T01:00:07;7.07;;;2.97;;
66478;SDS011;53294;47.912;13.526;2024-02-23T01:02:35;4.68;;;3.17;;
66478;SDS011;53294;47.912;13.526;2024-02-23T01:05:03;8.88;;;3.80;;
66478;SDS011;53294;47.912;13.526;2024-02-23T01:07:31;6.57;;;3.20;;
66478;SDS011;53294;47.912;13.526;2024-02-23T01:09:59;5.85;;;2.58;;
66478;SDS011;53294;47.912;13.526;2024-02-23T01:12:26;5.35;;;2.65;;
66478;SDS011;53294;47.912;13.526;2024-02-23T01:14:53;4.53;;;2.22;;
66478;SDS011;53294;47.912;13.526;2024-02-23T01:19:47;4.47;;;2.50;;
66478;SDS011;53294;47.912;13.526;2024-02-23T01:22:14;5.57;;;3.70;;
66478;SDS011;53294;47.912;13.526;2024-02-23T01:24:41;10.23;;;3.17;;
66478;SDS011;53294;47.912;13.526;2024-02-23T01:27:08;2.97;;;1.70;;
66478;SDS011;53294;47.912;13.526;2024-02-23T01:29:35;0.80;;;0.38;;
66478;SDS011;53294;47.912;13.526;2024-02-23T01:32:01;0.00;;;0.00;;
66478;SDS011;53294;47.912;13.526;2024-02-23T01:34:28;0.77;;;0.20;;
66478;SDS011;53294;47.912;13.526;2024-02-23T01:36:55;1.02;;;0.30;;
66478;SDS011;53294;47.912;13.526;2024-02-23T01:39:22;0.13;;;0.10;;
66478;SDS011;53294;47.912;13.526;2024-02-23T01:41:49;0.00;;;0.00;;
66478;SDS011;53294;47.912;13.526;2024-02-23T01:44:15;0.15;;;0.10;;
66478;SDS011;53294;47.912;13.526;2024-02-23T01:46:43;0.10;;;0.00;;
66478;SDS011;53294;47.912;13.526;2024-02-23T01:49:11;0.75;;;0.10;;
66478;SDS011;53294;47.912;13.526;2024-02-23T01:51:38;0.10;;;0.10;;
66478;SDS011;53294;47.912;13.526;2024-02-23T01:56:32;0.10;;;0.10;;
66478;SDS011;53294;47.912;13.526;2024-02-23T01:59:03;0.10;;;0.08;;
66478;SDS011;53294;47.912;13.526;2024-02-23T02:01:30;0.00;;;0.00;;
66478;SDS011;53294;47.912;13.526;2024-02-23T02:03:58;0.00;;;0.00;;
66478;SDS011;53294;47.912;13.526;2024-02-23T02:08:51;0.50;;;0.15;;
66478;SDS011;53294;47.912;13.526;2024-02-23T02:11:18;0.10;;;0.10;;
66478;SDS011;53294;47.912;13.526;2024-02-23T02:13:45;0.30;;;0.00;;
66478;SDS011;53294;47.912;13.526;2024-02-23T02:16:12;0.15;;;0.10;;
66478;SDS011;53294;47.912;13.526;2024-02-23T02:18:39;0.63;;;0.10;;
66478;SDS011;53294;47.912;13.526;2024-02-23T02:21:05;0.30;;;0.10;;
66478;SDS011;53294;47.912;13.526;2024-02-23T02:23:32;0.25;;;0.10;;
66478;SDS011;53294;47.912;13.526;2024-02-23T02:25:59;0.00;;;0.00;;
66478;SDS011;53294;47.912;13.526;2024-02-23T02:28:26;0.10;;;0.00;;
66478;SDS011;53294;47.912;13.526;2024-02-23T02:30:52;0.10;;;0.10;;
66478;SDS011;53294;47.912;13.526;2024-02-23T02:33:20;0.05;;;0.00;;
66478;SDS011;53294;47.912;13.526;2024-02-23T02:35:47;0.00;;;0.00;;
66478;SDS011;53294;47.912;13.526;2024-02-23T02:38:16;0.00;;;0.00;;
66478;SDS011;53294;47.912;13.526;2024-02-23T02:40:43;0.00;;;0.00;;
66478;SDS011;53294;47.912;13.526;2024-02-23T02:43:10;0.00;;;0.00;;
66478;SDS011;53294;47.912;13.526;2024-02-23T02:45:37;0.10;;;0.00;;
66478;SDS011;53294;47.912;13.526;2024-02-23T02:48:03;0.05;;;0.00;;
66478;SDS011;53294;47.912;13.526;2024-02-23T02:52:58;0.00;;;0.00;;
66478;SDS011;53294;47.912;13.526;2024-02-23T02:55:25;0.00;;;0.00;;
66478;SDS011;53294;47.912;13.526;2024-02-23T02:57:51;0.00;;;0.00;;
66478;SDS011;53294;47.912;13.526;2024-02-23T03:00:18;0.00;;;0.00;;
66478;SDS011;53294;47.912;13.526;2024-02-23T03:02:45;0.00;;;0.00;;
66478;SDS011;53294;47.912;13.526;2024-02-23T03:05:11;0.45;;;0.15;;
66478;SDS011;53294;47.912;13.526;2024-02-23T03:07:38;0.00;;;0.00;;
66478;SDS011;53294;47.912;13.526;2024-02-23T03:10:05;0.00;;;0.00;;
66478;SDS011;53294;47.912;13.526;2024-02-23T03:12:32;0.00;;;0.00;;
66478;SDS011;53294;47.912;13.526;2024-02-23T03:14:59;0.00;;;0.00;;
66478;SDS011;53294;47.912;13.526;2024-02-23T03:17:26;0.00;;;0.00;;
66478;SDS011;53294;47.912;13.526;2024-02-23T03:19:53;0.10;;;0.00;;
66478;SDS011;53294;47.912;13.526;2024-02-23T03:22:20;0.00;;;0.00;;
66478;SDS011;53294;47.912;13.526;2024-02-23T03:24:46;0.00;;;0.00;;
66478;SDS011;53294;47.912;13.526;2024-02-23T03:27:13;0.00;;;0.00;;
66478;SDS011;53294;47.912;13.526;2024-02-23T03:32:07;0.00;;;0.00;;
66478;SDS011;53294;47.912;13.526;2024-02-23T03:34:35;0.10;;;0.10;;
66478;SDS011;53294;47.912;13.526;2024-02-23T03:37:02;0.00;;;0.00;;
66478;SDS011;53294;47.912;13.526;2024-02-23T03:39:29;0.00;;;0.00;;
66478;SDS011;53294;47.912;13.526;2024-02-23T03:41:56;0.00;;;0.00;;
66478;SDS011;53294;47.912;13.526;2024-02-23T03:44:22;0.00;;;0.00;;
66478;SDS011;53294;47.912;13.526;2024-02-23T03:49:16;0.00;;;0.00;;
66478;SDS011;53294;47.912;13.526;2024-02-23T03:51:43;0.00;;;0.00;;
66478;SDS011;53294;47.912;13.526;2024-02-23T03:54:10;0.00;;;0.00;;
66478;SDS011;53294;47.912;13.526;2024-02-23T03:56:40;0.00;;;0.00;;
66478;SDS011;53294;47.912;13.526;2024-02-23T03:59:08;0.08;;;0.05;;
66478;SDS011;53294;47.912;13.526;2024-02-23T04:01:36;0.00;;;0.00;;
66478;SDS011;53294;47.912;13.526;2024-02-23T04:04:04;0.00;;;0.00;;
66478;SDS011;53294;47.912;13.526;2024-02-23T04:06:31;0.00;;;0.00;;
66478;SDS011;53294;47.912;13.526;2024-02-23T04:08:59;0.00;;;0.00;;
66478;SDS011;53294;47.912;13.526;2024-02-23T04:11:26;0.05;;;0.00;;
66478;SDS011;53294;47.912;13.526;2024-02-23T04:13:53;0.00;;;0.00;;
66478;SDS011;53294;47.912;13.526;2024-02-23T04:16:22;0.00;;;0.00;;
66478;SDS011;53294;47.912;13.526;2024-02-23T04:18:50;0.00;;;0.00;;
66478;SDS011;53294;47.912;13.526;2024-02-23T04:21:17;0.00;;;0.00;;
66478;SDS011;53294;47.912;13.526;2024-02-23T04:23:44;0.00;;;0.00;;
66478;SDS011;53294;47.912;13.526;2024-02-23T04:26:11;0.00;;;0.00;;
66478;SDS011;53294;47.912;13.526;2024-02-23T04:28:39;0.00;;;0.00;;
66478;SDS011;53294;47.912;13.526;2024-02-23T04:31:06;0.32;;;0.10;;
66478;SDS011;53294;47.912;13.526;2024-02-23T04:33:34;0.05;;;0.00;;
66478;SDS011;53294;47.912;13.526;2024-02-23T04:36:02;0.00;;;0.00;;
66478;SDS011;53294;47.912;13.526;2024-02-23T04:38:30;0.00;;;0.00;;
66478;SDS011;53294;47.912;13.526;2024-02-23T04:40:57;0.00;;;0.00;;
66478;SDS011;53294;47.912;13.526;2024-02-23T04:43:24;0.00;;;0.00;;
66478;SDS011;53294;47.912;13.526;2024-02-23T04:45:51;0.00;;;0.00;;
66478;SDS011;53294;47.912;13.526;2024-02-23T04:48:18;0.00;;;0.00;;
66478;SDS011;53294;47.912;13.526;2024-02-23T04:50:45;0.00;;;0.00;;
66478;SDS011;53294;47.912;13.526;2024-02-23T04:53:12;0.00;;;0.00;;
66478;SDS011;53294;47.912;13.526;2024-02-23T04:55:38;0.00;;;0.00;;
66478;SDS011;53294;47.912;13.526;2024-02-23T04:58:05;0.13;;;0.10;;
66478;SDS011;53294;47.912;13.526;2024-02-23T05:00:32;0.00;;;0.00;;
66478;SDS011;53294;47.912;13.526;2024-02-23T05:03:00;0.13;;;0.00;;
66478;SDS011;53294;47.912;13.526;2024-02-23T05:05:30;0.00;;;0.00;;
66478;SDS011;53294;47.912;13.526;2024-02-23T05:07:58;0.00;;;0.00;;
66478;SDS011;53294;47.912;13.526;2024-02-23T05:10:26;0.00;;;0.00;;
66478;SDS011;53294;47.912;13.526;2024-02-23T05:12:53;0.70;;;0.10;;
66478;SDS011;53294;47.912;13.526;2024-02-23T05:15:20;0.25;;;0.08;;
66478;SDS011;53294;47.912;13.526;2024-02-23T05:17:47;0.00;;;0.00;;
66478;SDS011;53294;47.912;13.526;2024-02-23T05:20:14;0.00;;;0.00;;
66478;SDS011;53294;47.912;13.526;2024-02-23T05:22:41;0.00;;;0.00;;
66478;SDS011;53294;47.912;13.526;2024-02-23T05:25:08;0.47;;;0.20;;
66478;SDS011;53294;47.912;13.526;2024-02-23T05:30:02;0.00;;;0.00;;
66478;SDS011;53294;47.912;13.526;2024-02-23T05:32:29;0.00;;;0.00;;
66478;SDS011;53294;47.912;13.526;2024-02-23T05:34:56;0.28;;;0.00;;
66478;SDS011;53294;47.912;13.526;2024-02-23T05:37:24;0.00;;;0.00;;
66478;SDS011;53294;47.912;13.526;2024-02-23T05:39:50;0.00;;;0.00;;
66478;SDS011;53294;47.912;13.526;2024-02-23T05:42:18;0.00;;;0.00;;
66478;SDS011;53294;47.912;13.526;2024-02-23T05:44:44;0.00;;;0.00;;
66478;SDS011;53294;47.912;13.526;2024-02-23T05:47:11;0.28;;;0.20;;
66478;SDS011;53294;47.912;13.526;2024-02-23T05:49:40;0.22;;;0.20;;
66478;SDS011;53294;47.912;13.526;2024-02-23T05:52:07;0.00;;;0.00;;
66478;SDS011;53294;47.912;13.526;2024-02-23T05:54:34;0.00;;;0.00;;
66478;SDS011;53294;47.912;13.526;2024-02-23T05:57:01;0.00;;;0.00;;
66478;SDS011;53294;47.912;13.526;2024-02-23T05:59:27;0.00;;;0.00;;
66478;SDS011;53294;47.912;13.526;2024-02-23T06:01:55;0.00;;;0.00;;
66478;SDS011;53294;47.912;13.526;2024-02-23T06:04:25;0.10;;;0.00;;
66478;SDS011;53294;47.912;13.526;2024-02-23T06:06:53;0.00;;;0.00;;
66478;SDS011;53294;47.912;13.526;2024-02-23T06:09:20;0.00;;;0.00;;
66478;SDS011;53294;47.912;13.526;2024-02-23T06:11:47;0.00;;;0.00;;
66478;SDS011;53294;47.912;13.526;2024-02-23T06:14:14;0.00;;;0.00;;
66478;SDS011;53294;47.912;13.526;2024-02-23T06:16:41;0.00;;;0.00;;
66478;SDS011;53294;47.912;13.526;2024-02-23T06:19:08;0.00;;;0.00;;
66478;SDS011;53294;47.912;13.526;2024-02-23T06:21:35;0.63;;;0.00;;
66478;SDS011;53294;47.912;13.526;2024-02-23T06:24:01;0.20;;;0.00;;
66478;SDS011;53294;47.912;13.526;2024-02-23T06:28:55;0.00;;;0.00;;
66478;SDS011;53294;47.912;13.526;2024-02-23T06:31:22;0.30;;;0.00;;
66478;SDS011;53294;47.912;13.526;2024-02-23T06:33:49;0.00;;;0.00;;
66478;SDS011;53294;47.912;13.526;2024-02-23T06:36:18;0.03;;;0.00;;
66478;SDS011;53294;47.912;13.526;2024-02-23T06:38:45;1.17;;;0.00;;
66478;SDS011;53294;47.912;13.526;2024-02-23T06:41:11;0.08;;;0.00;;
66478;SDS011;53294;47.912;13.526;2024-02-23T06:43:38;0.00;;;0.00;;
66478;SDS011;53294;47.912;13.526;2024-02-23T06:46:08;0.30;;;0.00;;
66478;SDS011;53294;47.912;13.526;2024-02-23T06:48:36;0.00;;;0.00;;
66478;SDS011;53294;47.912;13.526;2024-02-23T06:51:06;0.20;;;0.20;;
66478;SDS011;53294;47.912;13.526;2024-02-23T06:53:36;0.00;;;0.00;;
66478;SDS011;53294;47.912;13.526;2024-02-23T06:56:04;0.00;;;0.00;;
66478;SDS011;53294;47.912;13.526;2024-02-23T06:58:31;0.00;;;0.00;;
66478;SDS011;53294;47.912;13.526;2024-02-23T07:00:58;0.00;;;0.00;;
66478;SDS011;53294;47.912;13.526;2024-02-23T07:03:25;0.25;;;0.03;;
66478;SDS011;53294;47.912;13.526;2024-02-23T07:05:52;0.00;;;0.00;;
66478;SDS011;53294;47.912;13.526;2024-02-23T07:08:19;0.00;;;0.00;;
66478;SDS011;53294;47.912;13.526;2024-02-23T07:10:46;0.22;;;0.10;;
66478;SDS011;53294;47.912;13.526;2024-02-23T07:13:12;0.00;;;0.00;;
66478;SDS011;53294;47.912;13.526;2024-02-23T07:15:39;0.20;;;0.10;;
66478;SDS011;53294;47.912;13.526;2024-02-23T07:18:06;0.00;;;0.00;;
66478;SDS011;53294;47.912;13.526;2024-02-23T07:20:35;0.03;;;0.03;;
66478;SDS011;53294;47.912;13.526;2024-02-23T07:23:04;0.88;;;0.20;;
66478;SDS011;53294;47.912;13.526;2024-02-23T07:25:31;0.05;;;0.00;;
66478;SDS011;53294;47.912;13.526;2024-02-23T07:27:58;0.00;;;0.00;;
66478;SDS011;53294;47.912;13.526;2024-02-23T07:30:24;0.00;;;0.00;;
66478;SDS011;53294;47.912;13.526;2024-02-23T07:32:51;0.30;;;0.10;;
66478;SDS011;53294;47.912;13.526;2024-02-23T07:35:19;0.10;;;0.10;;
66478;SDS011;53294;47.912;13.526;2024-02-23T07:37:46;0.08;;;0.08;;
66478;SDS011;53294;47.912;13.526;2024-02-23T07:40:13;0.00;;;0.00;;
66478;SDS011;53294;47.912;13.526;2024-02-23T07:42:45;0.10;;;0.10;;
66478;SDS011;53294;47.912;13.526;2024-02-23T07:45:12;0.00;;;0.00;;
66478;SDS011;53294;47.912;13.526;2024-02-23T07:47:39;0.05;;;0.00;;
66478;SDS011;53294;47.912;13.526;2024-02-23T07:50:06;0.85;;;0.00;;
66478;SDS011;53294;47.912;13.526;2024-02-23T07:52:33;0.00;;;0.00;;
66478;SDS011;53294;47.912;13.526;2024-02-23T07:55:00;0.13;;;0.10;;
66478;SDS011;53294;47.912;13.526;2024-02-23T07:57:29;0.80;;;0.08;;
66478;SDS011;53294;47.912;13.526;2024-02-23T07:59:57;0.55;;;0.10;;
66478;SDS011;53294;47.912;13.526;2024-02-23T08:02:24;0.30;;;0.08;;
66478;SDS011;53294;47.912;13.526;2024-02-23T08:04:51;0.25;;;0.10;;
66478;SDS011;53294;47.912;13.526;2024-02-23T08:07:18;0.20;;;0.10;;
66478;SDS011;53294;47.912;13.526;2024-02-23T08:09:45;0.00;;;0.00;;
66478;SDS011;53294;47.912;13.526;2024-02-23T08:12:12;0.10;;;0.10;;
66478;SDS011;53294;47.912;13.526;2024-02-23T08:14:40;0.32;;;0.17;;
66478;SDS011;53294;47.912;13.526;2024-02-23T08:17:08;0.63;;;0.13;;
66478;SDS011;53294;47.912;13.526;2024-02-23T08:19:36;0.10;;;0.10;;
66478;SDS011;53294;47.912;13.526;2024-02-23T08:22:03;0.30;;;0.15;;
66478;SDS011;53294;47.912;13.526;2024-02-23T08:24:30;0.20;;;0.10;;
66478;SDS011;53294;47.912;13.526;2024-02-23T08:26:57;0.45;;;0.00;;
66478;SDS011;53294;47.912;13.526;2024-02-23T08:29:25;0.10;;;0.10;;
66478;SDS011;53294;47.912;13.526;2024-02-23T08:31:52;0.28;;;0.10;;
66478;SDS011;53294;47.912;13.526;2024-02-23T08:34:19;0.10;;;0.00;;
66478;SDS011;53294;47.912;13.526;2024-02-23T08:36:46;0.00;;;0.00;;
66478;SDS011;53294;47.912;13.526;2024-02-23T08:39:12;0.00;;;0.00;;
66478;SDS011;53294;47.912;13.526;2024-02-23T08:41:39;0.03;;;0.03;;
66478;SDS011;53294;47.912;13.526;2024-02-23T08:44:06;0.00;;;0.00;;
66478;SDS011;53294;47.912;13.526;2024-02-23T08:46:33;0.00;;;0.00;;
66478;SDS011;53294;47.912;13.526;2024-02-23T08:49:00;0.05;;;0.05;;
66478;SDS011;53294;47.912;13.526;2024-02-23T08:51:27;0.00;;;0.00;;
66478;SDS011;53294;47.912;13.526;2024-02-23T08:53:53;0.08;;;0.08;;
66478;SDS011;53294;47.912;13.526;2024-02-23T08:56:25;0.10;;;0.00;;
66478;SDS011;53294;47.912;13.526;2024-02-23T08:58:52;0.00;;;0.00;;
66478;SDS011;53294;47.912;13.526;2024-02-23T09:01:19;0.00;;;0.00;;
66478;SDS011;53294;47.912;13.526;2024-02-23T09:03:46;0.30;;;0.13;;
66478;SDS011;53294;47.912;13.526;2024-02-23T09:06:13;0.00;;;0.00;;
66478;SDS011;53294;47.912;13.526;2024-02-23T09:08:40;0.30;;;0.10;;
66478;SDS011;53294;47.912;13.526;2024-02-23T09:11:07;0.57;;;0.08;;
66478;SDS011;53294;47.912;13.526;2024-02-23T09:13:34;0.00;;;0.00;;
66478;SDS011;53294;47.912;13.526;2024-02-23T09:16:01;0.10;;;0.00;;
66478;SDS011;53294;47.912;13.526;2024-02-23T09:18:29;1.15;;;0.20;;
66478;SDS011;53294;47.912;13.526;2024-02-23T09:23:23;0.00;;;0.00;;
66478;SDS011;53294;47.912;13.526;2024-02-23T09:25:50;0.15;;;0.00;;
66478;SDS011;53294;47.912;13.526;2024-02-23T09:28:17;0.00;;;0.00;;
66478;SDS011;53294;47.912;13.526;2024-02-23T09:30:44;0.22;;;0.20;;
66478;SDS011;53294;47.912;13.526;2024-02-23T09:33:10;0.00;;;0.00;;
66478;SDS011;53294;47.912;13.526;2024-02-23T09:35:37;0.00;;;0.00;;
66478;SDS011;53294;47.912;13.526;2024-02-23T09:38:04;0.10;;;0.10;;
66478;SDS011;53294;47.912;13.526;2024-02-23T09:40:31;0.20;;;0.00;;
66478;SDS011;53294;47.912;13.526;2024-02-23T09:42:58;0.52;;;0.25;;
66478;SDS011;53294;47.912;13.526;2024-02-23T09:45:25;0.00;;;0.00;;
66478;SDS011;53294;47.912;13.526;2024-02-23T09:47:53;0.00;;;0.00;;
66478;SDS011;53294;47.912;13.526;2024-02-23T09:50:23;0.00;;;0.00;;
66478;SDS011;53294;47.912;13.526;2024-02-23T09:52:50;1.45;;;0.20;;
66478;SDS011;53294;47.912;13.526;2024-02-23T09:55:17;0.00;;;0.00;;
66478;SDS011;53294;47.912;13.526;2024-02-23T09:57:48;0.03;;;0.00;;
66478;SDS011;53294;47.912;13.526;2024-02-23T10:00:18;0.00;;;0.00;;
66478;SDS011;53294;47.912;13.526;2024-02-23T10:02:44;0.17;;;0.05;;
66478;SDS011;53294;47.912;13.526;2024-02-23T10:05:11;0.00;;;0.00;;
66478;SDS011;53294;47.912;13.526;2024-02-23T10:07:40;0.00;;;0.00;;
66478;SDS011;53294;47.912;13.526;2024-02-23T10:10:07;0.00;;;0.00;;
66478;SDS011;53294;47.912;13.526;2024-02-23T10:12:35;0.00;;;0.00;;
66478;SDS011;53294;47.912;13.526;2024-02-23T10:15:02;0.10;;;0.10;;
66478;SDS011;53294;47.912;13.526;2024-02-23T10:17:32;1.60;;;0.10;;
66478;SDS011;53294;47.912;13.526;2024-02-23T10:20:02;0.25;;;0.10;;
66478;SDS011;53294;47.912;13.526;2024-02-23T10:22:31;0.00;;;0.00;;
66478;SDS011;53294;47.912;13.526;2024-02-23T10:24:58;0.20;;;0.10;;
66478;SDS011;53294;47.912;13.526;2024-02-23T10:27:26;0.00;;;0.00;;
66478;SDS011;53294;47.912;13.526;2024-02-23T10:29:54;0.00;;;0.00;;
66478;SDS011;53294;47.912;13.526;2024-02-23T10:34:49;0.00;;;0.00;;
66478;SDS011;53294;47.912;13.526;2024-02-23T10:37:18;0.00;;;0.00;;
66478;SDS011;53294;47.912;13.526;2024-02-23T10:39:45;0.00;;;0.00;;
66478;SDS011;53294;47.912;13.526;2024-02-23T10:44:40;0.00;;;0.00;;
66478;SDS011;53294;47.912;13.526;2024-02-23T10:47:07;0.10;;;0.08;;
66478;SDS011;53294;47.912;13.526;2024-02-23T10:49:35;0.00;;;0.00;;
66478;SDS011;53294;47.912;13.526;2024-02-23T10:52:04;0.10;;;0.10;;
66478;SDS011;53294;47.912;13.526;2024-02-23T10:54:31;1.08;;;0.28;;
66478;SDS011;53294;47.912;13.526;2024-02-23T10:57:00;0.00;;;0.00;;
66478;SDS011;53294;47.912;13.526;2024-02-23T10:59:28;0.00;;;0.00;;
66478;SDS011;53294;47.912;13.526;2024-02-23T11:01:55;0.00;;;0.00;;
66478;SDS011;53294;47.912;13.526;2024-02-23T11:04:26;0.00;;;0.00;;
66478;SDS011;53294;47.912;13.526;2024-02-23T11:06:55;0.00;;;0.00;;
66478;SDS011;53294;47.912;13.526;2024-02-23T11:09:25;0.10;;;0.10;;
66478;SDS011;53294;47.912;13.526;2024-02-23T11:11:56;0.00;;;0.00;;
66478;SDS011;53294;47.912;13.526;2024-02-23T11:14:31;0.00;;;0.00;;
66478;SDS011;53294;47.912;13.526;2024-02-23T11:17:02;0.00;;;0.00;;
66478;SDS011;53294;47.912;13.526;2024-02-23T11:19:36;0.00;;;0.00;;
66478;SDS011;53294;47.912;13.526;2024-02-23T11:22:04;0.00;;;0.00;;
66478;SDS011;53294;47.912;13.526;2024-02-23T11:24:44;0.00;;;0.00;;
66478;SDS011;53294;47.912;13.526;2024-02-23T11:27:16;0.00;;;0.00;;
66478;SDS011;53294;47.912;13.526;2024-02-23T11:29:47;0.10;;;0.00;;
66478;SDS011;53294;47.912;13.526;2024-02-23T11:35:01;0.00;;;0.00;;
66478;SDS011;53294;47.912;13.526;2024-02-23T11:37:28;0.00;;;0.00;;
66478;SDS011;53294;47.912;13.526;2024-02-23T11:39:56;0.22;;;0.13;;
66478;SDS011;53294;47.912;13.526;2024-02-23T11:44:50;0.38;;;0.30;;
66478;SDS011;53294;47.912;13.526;2024-02-23T11:47:20;0.00;;;0.00;;
66478;SDS011;53294;47.912;13.526;2024-02-23T11:49:46;0.43;;;0.43;;
66478;SDS011;53294;47.912;13.526;2024-02-23T11:52:13;0.10;;;0.00;;
66478;SDS011;53294;47.912;13.526;2024-02-23T11:54:41;0.00;;;0.00;;
66478;SDS011;53294;47.912;13.526;2024-02-23T11:57:08;0.00;;;0.00;;
66478;SDS011;53294;47.912;13.526;2024-02-23T11:59:34;0.00;;;0.00;;
66478;SDS011;53294;47.912;13.526;2024-02-23T12:02:01;0.08;;;0.08;;
66478;SDS011;53294;47.912;13.526;2024-02-23T12:04:31;0.10;;;0.10;;
66478;SDS011;53294;47.912;13.526;2024-02-23T12:06:58;0.15;;;0.15;;
66478;SDS011;53294;47.912;13.526;2024-02-23T12:09:25;0.00;;;0.00;;
66478;SDS011;53294;47.912;13.526;2024-02-23T12:11:52;0.00;;;0.00;;
66478;SDS011;53294;47.912;13.526;2024-02-23T12:14:19;0.00;;;0.00;;
66478;SDS011;53294;47.912;13.526;2024-02-23T12:16:46;0.00;;;0.00;;
66478;SDS011;53294;47.912;13.526;2024-02-23T12:19:13;0.20;;;0.00;;
66478;SDS011;53294;47.912;13.526;2024-02-23T12:21:41;0.57;;;0.00;;
66478;SDS011;53294;47.912;13.526;2024-02-23T12:24:12;0.00;;;0.00;;
66478;SDS011;53294;47.912;13.526;2024-02-23T12:26:38;0.10;;;0.05;;
66478;SDS011;53294;47.912;13.526;2024-02-23T12:29:05;0.10;;;0.10;;
66478;SDS011;53294;47.912;13.526;2024-02-23T12:31:32;0.00;;;0.00;;
66478;SDS011;53294;47.912;13.526;2024-02-23T12:33:59;0.00;;;0.00;;
66478;SDS011;53294;47.912;13.526;2024-02-23T12:36:26;0.08;;;0.00;;
66478;SDS011;53294;47.912;13.526;2024-02-23T12:38:55;0.40;;;0.10;;
66478;SDS011;53294;47.912;13.526;2024-02-23T12:41:21;0.00;;;0.00;;
66478;SDS011;53294;47.912;13.526;2024-02-23T12:43:49;0.00;;;0.00;;
66478;SDS011;53294;47.912;13.526;2024-02-23T12:46:15;0.00;;;0.00;;
66478;SDS011;53294;47.912;13.526;2024-02-23T12:48:42;0.10;;;0.10;;
66478;SDS011;53294;47.912;13.526;2024-02-23T12:51:09;0.45;;;0.00;;
66478;SDS011;53294;47.912;13.526;2024-02-23T12:53:37;0.00;;;0.00;;
66478;SDS011;53294;47.912;13.526;2024-02-23T12:58:39;0.10;;;0.10;;
66478;SDS011;53294;47.912;13.526;2024-02-23T13:01:07;0.00;;;0.00;;
66478;SDS011;53294;47.912;13.526;2024-02-23T13:03:35;0.25;;;0.22;;
66478;SDS011;53294;47.912;13.526;2024-02-23T13:06:03;0.00;;;0.00;;
66478;SDS011;53294;47.912;13.526;2024-02-23T13:08:31;0.00;;;0.00;;
66478;SDS011;53294;47.912;13.526;2024-02-23T13:10:58;0.00;;;0.00;;
66478;SDS011;53294;47.912;13.526;2024-02-23T13:13:25;0.00;;;0.00;;
66478;SDS011;53294;47.912;13.526;2024-02-23T13:15:52;0.00;;;0.00;;
66478;SDS011;53294;47.912;13.526;2024-02-23T13:18:20;0.30;;;0.13;;
66478;SDS011;53294;47.912;13.526;2024-02-23T13:20:47;0.10;;;0.10;;
66478;SDS011;53294;47.912;13.526;2024-02-23T13:23:13;0.00;;;0.00;;
66478;SDS011;53294;47.912;13.526;2024-02-23T13:25:42;0.00;;;0.00;;
66478;SDS011;53294;47.912;13.526;2024-02-23T13:28:10;0.00;;;0.00;;
66478;SDS011;53294;47.912;13.526;2024-02-23T13:30:37;0.00;;;0.00;;
66478;SDS011;53294;47.912;13.526;2024-02-23T13:33:05;0.00;;;0.00;;
66478;SDS011;53294;47.912;13.526;2024-02-23T13:35:34;0.00;;;0.00;;
66478;SDS011;53294;47.912;13.526;2024-02-23T13:38:01;0.00;;;0.00;;
66478;SDS011;53294;47.912;13.526;2024-02-23T13:40:31;0.00;;;0.00;;
66478;SDS011;53294;47.912;13.526;2024-02-23T13:42:58;0.00;;;0.00;;
66478;SDS011;53294;47.912;13.526;2024-02-23T13:45:25;0.13;;;0.13;;
66478;SDS011;53294;47.912;13.526;2024-02-23T13:47:59;0.15;;;0.00;;
66478;SDS011;53294;47.912;13.526;2024-02-23T13:50:27;0.00;;;0.00;;
66478;SDS011;53294;47.912;13.526;2024-02-23T13:52:54;0.00;;;0.00;;
66478;SDS011;53294;47.912;13.526;2024-02-23T13:55:21;0.00;;;0.00;;
66478;SDS011;53294;47.912;13.526;2024-02-23T13:57:48;0.00;;;0.00;;
66478;SDS011;53294;47.912;13.526;2024-02-23T14:00:16;0.00;;;0.00;;
66478;SDS011;53294;47.912;13.526;2024-02-23T14:02:45;0.00;;;0.00;;
66478;SDS011;53294;47.912;13.526;2024-02-23T14:05:13;0.15;;;0.05;;
66478;SDS011;53294;47.912;13.526;2024-02-23T14:07:42;0.00;;;0.00;;
66478;SDS011;53294;47.912;13.526;2024-02-23T14:10:09;0.00;;;0.00;;
66478;SDS011;53294;47.912;13.526;2024-02-23T14:12:36;0.00;;;0.00;;
66478;SDS011;53294;47.912;13.526;2024-02-23T14:15:03;0.30;;;0.10;;
66478;SDS011;53294;47.912;13.526;2024-02-23T14:17:31;0.00;;;0.00;;
66478;SDS011;53294;47.912;13.526;2024-02-23T14:19:59;0.00;;;0.00;;
66478;SDS011;53294;47.912;13.526;2024-02-23T14:22:26;0.15;;;0.13;;
66478;SDS011;53294;47.912;13.526;2024-02-23T14:24:54;0.00;;;0.00;;
66478;SDS011;53294;47.912;13.526;2024-02-23T14:27:21;0.00;;;0.00;;
66478;SDS011;53294;47.912;13.526;2024-02-23T14:29:48;0.52;;;0.10;;
66478;SDS011;53294;47.912;13.526;2024-02-23T14:34:43;0.28;;;0.05;;
66478;SDS011;53294;47.912;13.526;2024-02-23T14:37:11;0.00;;;0.00;;
66478;SDS011;53294;47.912;13.526;2024-02-23T14:39:38;0.00;;;0.00;;
66478;SDS011;53294;47.912;13.526;2024-02-23T14:42:05;0.10;;;0.00;;
66478;SDS011;53294;47.912;13.526;2024-02-23T14:44:31;0.00;;;0.00;;
66478;SDS011;53294;47.912;13.526;2024-02-23T14:46:58;0.00;;;0.00;;
66478;SDS011;53294;47.912;13.526;2024-02-23T14:49:25;0.00;;;0.00;;
66478;SDS011;53294;47.912;13.526;2024-02-23T14:51:52;0.10;;;0.00;;
66478;SDS011;53294;47.912;13.526;2024-02-23T14:54:19;0.03;;;0.00;;
66478;SDS011;53294;47.912;13.526;2024-02-23T14:56:45;0.40;;;0.20;;
66478;SDS011;53294;47.912;13.526;2024-02-23T14:59:13;0.15;;;0.08;;
66478;SDS011;53294;47.912;13.526;2024-02-23T15:01:40;0.20;;;0.10;;
66478;SDS011;53294;47.912;13.526;2024-02-23T15:04:10;0.00;;;0.00;;
66478;SDS011;53294;47.912;13.526;2024-02-23T15:06:37;0.28;;;0.10;;
66478;SDS011;53294;47.912;13.526;2024-02-23T15:09:04;0.20;;;0.17;;
66478;SDS011;53294;47.912;13.526;2024-02-23T15:11:31;0.15;;;0.10;;